Jpo Gemini — A8VF7 — position and weather

sailwx.info

Track history (hours):
 
Tides and Currents Weather Stations Pressure Air Temp Water Temp Dewpoint Dewpoint Depression Visibility Wind Speed Wind Dir Waves Ship Positions

Jpo Gemini

Last reported at 2017-Sep-23 23:30 UTC. Time now 2017-Sep-23 23:53 UTC.
Position N 30°40' W 011°28'.

; draft 11.5 m.

Type: Cargo ship. MMSI: 636091995.

Date/timePositionNaut miles runAvg speedWind from/ knotsBaromVisibWave heightAir tempDewpointWater temp
2017-Sep-23 23:30N 30°40' W 011°28'917.4
2017-Sep-23 23:00N 30°47' W 011°22'917.4
2017-Sep-23 22:30N 30°55' W 011°16'917.5
2017-Sep-23 22:00N 31°01' W 011°11'918.1
2017-Sep-23 21:30N 31°09' W 011°04'1218.5
2017-Sep-23 20:51N 31°19' W 010°56'618.1
2017-Sep-23 20:30N 31°24' W 010°52'1518.0
2017-Sep-23 19:40N 31°36' W 010°42'  
2017-Sep-21 06:00N 36°09' W 005°26'0 0.1
2017-Sep-21 05:01N 36°09' W 005°26'0 1.4
2017-Sep-21 04:59N 36°09' W 005°26'2 5.1
2017-Sep-21 04:30N 36°08' W 005°24'3 5.7
2017-Sep-21 04:00N 36°05' W 005°22'5 9.1
2017-Sep-21 03:30N 36°03' W 005°17'611.3
2017-Sep-21 03:00N 36°01' W 005°11'2 3.9
2017-Sep-21 02:27N 36°00' W 005°08'1 1.6
2017-Sep-21 02:00N 36°01' W 005°09'1 1.4
2017-Sep-21 01:30N 36°01' W 005°10'1 1.6
2017-Sep-21 01:00N 36°01' W 005°11'1 1.6
2017-Sep-21 00:30N 36°01' W 005°12'1 1.4
2017-Sep-21 00:00N 36°01' W 005°12'4 7.9
2017-Sep-20 23:30N 36°01' W 005°17'3 6.0
2017-Sep-20 23:00N 36°02' W 005°20'2 4.8
2017-Sep-20 22:30N 36°03' W 005°17'5 9.2
2017-Sep-20 22:00N 36°03' W 005°12'3 5.0
2017-Sep-20 21:30N 36°01' W 005°14'611.9
2017-Sep-20 21:00N 35°59' W 005°21'612.0
2017-Sep-20 20:30N 35°58' W 005°28'1111.1
2017-Sep-20 19:30N 35°56' W 005°42'31 1.3
2017-Sep-19 20:08N 36°05' W 006°18'0 0.1
2017-Sep-19 19:56N 36°04' W 006°18'1 0.1
2017-Sep-19 13:20N 36°04' W 006°18'3 8.7
2017-Sep-19 13:00N 36°05' W 006°15'32 9.8
2017-Sep-19 09:44N 35°58' W 005°36'2 9.0
2017-Sep-19 09:30N 35°57' W 005°33'76 2.7
2017-Sep-18 05:10N 35°15' W 006°50'316.4
2017-Sep-18 04:59N 35°13' W 006°53'1616.3
2017-Sep-18 04:01N 35°03' W 007°08'116.4
2017-Sep-18 03:58N 35°02' W 007°08'816.7
2017-Sep-18 03:30N 34°57' W 007°15'5716.3
2017-Sep-18 00:00N 34°18' W 008°06'7213.9 030 / 131022.010.8 20.0 24.0
2017-Sep-17 18:47N 33°31' W 009°12'23012.6
2017-Sep-17 00:34N 30°58' W 012°35'412.8
2017-Sep-17 00:14N 30°55' W 012°39'712.8
2017-Sep-16 23:43N 30°51' W 012°45'312.8
2017-Sep-16 23:30N 30°49' W 012°48'613.1
2017-Sep-16 23:00N 30°45' W 012°53'812.9
2017-Sep-16 22:23N 30°40' W 013°00'512.9
2017-Sep-16 22:00N 30°37' W 013°05'2412.6
2017-Sep-16 20:06N 30°21' W 013°26'212.4
2017-Sep-16 19:57N 30°20' W 013°28'612.5
2017-Sep-16 19:26N 30°16' W 013°33'512.6
2017-Sep-16 19:00N 30°12' W 013°38'712.3
2017-Sep-16 18:27N 30°08' W 013°44'512.0
2017-Sep-16 18:00N 30°04' W 013°49'612.0
2017-Sep-16 17:30N 30°00' W 013°54'612.1
2017-Sep-16 17:00N 29°56' W 013°59'611.9
2017-Sep-16 16:30N 29°52' W 014°04'611.9
2017-Sep-16 16:00N 29°49' W 014°09'612.3
2017-Sep-16 15:30N 29°44' W 014°14'612.1
2017-Sep-16 15:00N 29°40' W 014°19'612.0
2017-Sep-16 14:30N 29°37' W 014°25'611.9
2017-Sep-16 14:00N 29°34' W 014°31'612.2
2017-Sep-16 13:30N 29°31' W 014°38'612.4
2017-Sep-16 13:00N 29°28' W 014°44'612.4
2017-Sep-16 12:30N 29°25' W 014°50'612.3
2017-Sep-16 12:00N 29°21' W 014°55'612.4
2017-Sep-16 11:30N 29°17' W 015°01'612.5
2017-Sep-16 10:59N 29°13' W 015°06'612.4
2017-Sep-16 10:30N 29°09' W 015°12'612.4
2017-Sep-16 10:00N 29°05' W 015°17'612.1
2017-Sep-16 09:29N 29°01' W 015°23'612.2
2017-Sep-16 09:00N 28°58' W 015°28'612.2
2017-Sep-16 08:30N 28°54' W 015°34'612.2
2017-Sep-16 08:00N 28°50' W 015°39'612.2
2017-Sep-16 07:30N 28°46' W 015°44'612.2
2017-Sep-16 07:00N 28°42' W 015°49'612.1
2017-Sep-16 06:30N 28°38' W 015°54'612.3
2017-Sep-16 06:00N 28°34' W 015°60'612.0
2017-Sep-16 05:30N 28°30' W 016°05'611.2
2017-Sep-16 05:00N 28°28' W 016°11'2 4.0
2017-Sep-16 04:30N 28°29' W 016°13'0 0.0
2017-Sep-16 00:47N 28°29' W 016°13'0 0.0
2017-Sep-15 20:14N 28°29' W 016°13'0 0.0
2017-Sep-15 19:59N 28°29' W 016°13'0 0.0
2017-Sep-15 12:50N 28°29' W 016°13'0 0.1
2017-Sep-15 12:30N 28°29' W 016°13'1 1.7
2017-Sep-15 12:00N 28°29' W 016°14'4 7.4
2017-Sep-15 11:30N 28°27' W 016°10'816.8
2017-Sep-15 11:00N 28°23' W 016°02'612.3
2017-Sep-15 10:30N 28°18' W 015°58'1316.2
2017-Sep-15 09:42N 28°08' W 016°07'316.0
2017-Sep-15 09:29N 28°06' W 016°10'1215.6
2017-Sep-15 08:43N 27°56' W 016°17'416.0
2017-Sep-15 08:27N 27°51' W 016°18'815.8
2017-Sep-15 07:58N 27°44' W 016°20'1415.4
2017-Sep-15 07:04N 27°30' W 016°22'115.4
2017-Sep-15 06:59N 27°29' W 016°22'5515.9
2017-Sep-15 03:32N 26°35' W 016°31'6518.5
2017-Sep-15 00:00N 25°30' W 016°42'22116.0 360 / 51015.0 5.4 23.5 25.0
2017-Sep-14 10:12N 21°52' W 017°23'316.6
2017-Sep-14 10:01N 21°49' W 017°24'15815.7
2017-Sep-13 23:59N 19°12' W 017°41'  
Track history (hours):
 
Tides and Currents Weather Stations Pressure Air Temp Water Temp Dewpoint Dewpoint Depression Visibility Wind Speed Wind Dir Waves Ship Positions

Jpo Gemini

Last reported at 2017-Sep-23 23:30 UTC. Time now 2017-Sep-23 23:53 UTC.
Position N 30°40' W 011°28'.

; draft 11.5 m.

Type: Cargo ship. MMSI: 636091995.

Date/timePositionNaut miles runAvg speedWind from/ knotsBaromVisibWave heightAir tempDewpointWater temp
2017-Sep-23 23:30N 30°40' W 011°28'917.4
2017-Sep-23 23:00N 30°47' W 011°22'917.4
2017-Sep-23 22:30N 30°55' W 011°16'917.5
2017-Sep-23 22:00N 31°01' W 011°11'918.1
2017-Sep-23 21:30N 31°09' W 011°04'1218.5
2017-Sep-23 20:51N 31°19' W 010°56'618.1
2017-Sep-23 20:30N 31°24' W 010°52'1518.0
2017-Sep-23 19:40N 31°36' W 010°42'  
2017-Sep-21 06:00N 36°09' W 005°26'0 0.1
2017-Sep-21 05:01N 36°09' W 005°26'0 1.4
2017-Sep-21 04:59N 36°09' W 005°26'2 5.1
2017-Sep-21 04:30N 36°08' W 005°24'3 5.7
2017-Sep-21 04:00N 36°05' W 005°22'5 9.1
2017-Sep-21 03:30N 36°03' W 005°17'611.3
2017-Sep-21 03:00N 36°01' W 005°11'2 3.9
2017-Sep-21 02:27N 36°00' W 005°08'1 1.6
2017-Sep-21 02:00N 36°01' W 005°09'1 1.4
2017-Sep-21 01:30N 36°01' W 005°10'1 1.6
2017-Sep-21 01:00N 36°01' W 005°11'1 1.6
2017-Sep-21 00:30N 36°01' W 005°12'1 1.4
2017-Sep-21 00:00N 36°01' W 005°12'4 7.9
2017-Sep-20 23:30N 36°01' W 005°17'3 6.0
2017-Sep-20 23:00N 36°02' W 005°20'2 4.8
2017-Sep-20 22:30N 36°03' W 005°17'5 9.2
2017-Sep-20 22:00N 36°03' W 005°12'3 5.0
2017-Sep-20 21:30N 36°01' W 005°14'611.9
2017-Sep-20 21:00N 35°59' W 005°21'612.0
2017-Sep-20 20:30N 35°58' W 005°28'1111.1
2017-Sep-20 19:30N 35°56' W 005°42'31 1.3
2017-Sep-19 20:08N 36°05' W 006°18'0 0.1
2017-Sep-19 19:56N 36°04' W 006°18'1 0.1
2017-Sep-19 13:20N 36°04' W 006°18'3 8.7
2017-Sep-19 13:00N 36°05' W 006°15'32 9.8
2017-Sep-19 09:44N 35°58' W 005°36'2 9.0
2017-Sep-19 09:30N 35°57' W 005°33'76 2.7
2017-Sep-18 05:10N 35°15' W 006°50'316.4
2017-Sep-18 04:59N 35°13' W 006°53'1616.3
2017-Sep-18 04:01N 35°03' W 007°08'116.4
2017-Sep-18 03:58N 35°02' W 007°08'816.7
2017-Sep-18 03:30N 34°57' W 007°15'5716.3
2017-Sep-18 00:00N 34°18' W 008°06'7213.9 030 / 131022.010.8 20.0 24.0
2017-Sep-17 18:47N 33°31' W 009°12'23012.6
2017-Sep-17 00:34N 30°58' W 012°35'412.8
2017-Sep-17 00:14N 30°55' W 012°39'712.8
2017-Sep-16 23:43N 30°51' W 012°45'312.8
2017-Sep-16 23:30N 30°49' W 012°48'613.1
2017-Sep-16 23:00N 30°45' W 012°53'812.9
2017-Sep-16 22:23N 30°40' W 013°00'512.9
2017-Sep-16 22:00N 30°37' W 013°05'2412.6
2017-Sep-16 20:06N 30°21' W 013°26'212.4
2017-Sep-16 19:57N 30°20' W 013°28'612.5
2017-Sep-16 19:26N 30°16' W 013°33'512.6
2017-Sep-16 19:00N 30°12' W 013°38'712.3
2017-Sep-16 18:27N 30°08' W 013°44'512.0
2017-Sep-16 18:00N 30°04' W 013°49'612.0
2017-Sep-16 17:30N 30°00' W 013°54'612.1
2017-Sep-16 17:00N 29°56' W 013°59'611.9
2017-Sep-16 16:30N 29°52' W 014°04'611.9
2017-Sep-16 16:00N 29°49' W 014°09'612.3
2017-Sep-16 15:30N 29°44' W 014°14'612.1
2017-Sep-16 15:00N 29°40' W 014°19'612.0
2017-Sep-16 14:30N 29°37' W 014°25'611.9
2017-Sep-16 14:00N 29°34' W 014°31'612.2
2017-Sep-16 13:30N 29°31' W 014°38'612.4
2017-Sep-16 13:00N 29°28' W 014°44'612.4
2017-Sep-16 12:30N 29°25' W 014°50'612.3
2017-Sep-16 12:00N 29°21' W 014°55'612.4
2017-Sep-16 11:30N 29°17' W 015°01'612.5
2017-Sep-16 10:59N 29°13' W 015°06'612.4
2017-Sep-16 10:30N 29°09' W 015°12'612.4
2017-Sep-16 10:00N 29°05' W 015°17'612.1
2017-Sep-16 09:29N 29°01' W 015°23'612.2
2017-Sep-16 09:00N 28°58' W 015°28'612.2
2017-Sep-16 08:30N 28°54' W 015°34'612.2
2017-Sep-16 08:00N 28°50' W 015°39'612.2
2017-Sep-16 07:30N 28°46' W 015°44'612.2
2017-Sep-16 07:00N 28°42' W 015°49'612.1
2017-Sep-16 06:30N 28°38' W 015°54'612.3
2017-Sep-16 06:00N 28°34' W 015°60'612.0
2017-Sep-16 05:30N 28°30' W 016°05'611.2
2017-Sep-16 05:00N 28°28' W 016°11'2 4.0
2017-Sep-16 04:30N 28°29' W 016°13'0 0.0
2017-Sep-16 00:47N 28°29' W 016°13'0 0.0
2017-Sep-15 20:14N 28°29' W 016°13'0 0.0
2017-Sep-15 19:59N 28°29' W 016°13'0 0.0
2017-Sep-15 12:50N 28°29' W 016°13'0 0.1
2017-Sep-15 12:30N 28°29' W 016°13'1 1.7
2017-Sep-15 12:00N 28°29' W 016°14'4 7.4
2017-Sep-15 11:30N 28°27' W 016°10'816.8
2017-Sep-15 11:00N 28°23' W 016°02'612.3
2017-Sep-15 10:30N 28°18' W 015°58'1316.2
2017-Sep-15 09:42N 28°08' W 016°07'316.0
2017-Sep-15 09:29N 28°06' W 016°10'1215.6
2017-Sep-15 08:43N 27°56' W 016°17'416.0
2017-Sep-15 08:27N 27°51' W 016°18'815.8
2017-Sep-15 07:58N 27°44' W 016°20'1415.4
2017-Sep-15 07:04N 27°30' W 016°22'115.4
2017-Sep-15 06:59N 27°29' W 016°22'5515.9
2017-Sep-15 03:32N 26°35' W 016°31'6518.5
2017-Sep-15 00:00N 25°30' W 016°42'22116.0 360 / 51015.0 5.4 23.5 25.0
2017-Sep-14 10:12N 21°52' W 017°23'316.6
2017-Sep-14 10:01N 21°49' W 017°24'15815.7
2017-Sep-13 23:59N 19°12' W 017°41'  

Dump ship's entire track history